sensor_id;sensor_type;location;lat;lon;timestamp;temperature;humidity
49124;DHT22;48506;48.202;16.274;2023-08-24T00:01:23;24.00;99.90
49124;DHT22;48506;48.202;16.274;2023-08-24T00:03:49;24.00;99.90
49124;DHT22;48506;48.202;16.274;2023-08-24T00:06:15;23.90;99.90
49124;DHT22;48506;48.202;16.274;2023-08-24T00:08:42;23.90;99.90
49124;DHT22;48506;48.202;16.274;2023-08-24T00:11:09;23.90;99.90
49124;DHT22;48506;48.202;16.274;2023-08-24T00:13:44;23.90;99.90
49124;DHT22;48506;48.202;16.274;2023-08-24T00:16:18;23.90;99.90
49124;DHT22;48506;48.202;16.274;2023-08-24T00:18:45;23.90;99.90
49124;DHT22;48506;48.202;16.274;2023-08-24T00:21:14;23.90;99.90
49124;DHT22;48506;48.202;16.274;2023-08-24T00:23:45;23.90;99.90
49124;DHT22;48506;48.202;16.274;2023-08-24T00:26:11;23.90;99.90
49124;DHT22;48506;48.202;16.274;2023-08-24T00:28:37;23.90;99.90
49124;DHT22;48506;48.202;16.274;2023-08-24T00:31:03;23.90;99.90
49124;DHT22;48506;48.202;16.274;2023-08-24T00:33:29;23.80;99.90
49124;DHT22;48506;48.202;16.274;2023-08-24T00:36:02;23.70;99.90
49124;DHT22;48506;48.202;16.274;2023-08-24T00:38:28;23.70;99.90
49124;DHT22;48506;48.202;16.274;2023-08-24T00:40:55;23.80;99.90
49124;DHT22;48506;48.202;16.274;2023-08-24T00:43:22;23.80;99.90
49124;DHT22;48506;48.202;16.274;2023-08-24T00:45:58;23.80;99.90
49124;DHT22;48506;48.202;16.274;2023-08-24T00:48:26;23.70;99.90
49124;DHT22;48506;48.202;16.274;2023-08-24T00:50:55;23.70;99.90
49124;DHT22;48506;48.202;16.274;2023-08-24T00:53:24;23.70;99.90
49124;DHT22;48506;48.202;16.274;2023-08-24T00:55:51;23.70;99.90
49124;DHT22;48506;48.202;16.274;2023-08-24T00:58:17;23.60;99.90
49124;DHT22;48506;48.202;16.274;2023-08-24T01:00:44;23.50;99.90
49124;DHT22;48506;48.202;16.274;2023-08-24T01:03:11;23.40;99.90
49124;DHT22;48506;48.202;16.274;2023-08-24T01:05:36;23.40;99.90
49124;DHT22;48506;48.202;16.274;2023-08-24T01:08:03;23.40;99.90
49124;DHT22;48506;48.202;16.274;2023-08-24T01:10:41;23.40;99.90
49124;DHT22;48506;48.202;16.274;2023-08-24T01:13:11;23.40;99.90
49124;DHT22;48506;48.202;16.274;2023-08-24T01:16:08;23.40;99.90
49124;DHT22;48506;48.202;16.274;2023-08-24T01:18:39;23.40;99.90
49124;DHT22;48506;48.202;16.274;2023-08-24T01:21:05;23.40;99.90
49124;DHT22;48506;48.202;16.274;2023-08-24T01:26:16;23.30;99.90
49124;DHT22;48506;48.202;16.274;2023-08-24T01:28:44;23.30;99.90
49124;DHT22;48506;48.202;16.274;2023-08-24T01:31:10;23.30;99.90
49124;DHT22;48506;48.202;16.274;2023-08-24T01:33:36;23.30;99.90
49124;DHT22;48506;48.202;16.274;2023-08-24T01:36:02;23.30;99.90
49124;DHT22;48506;48.202;16.274;2023-08-24T01:38:29;23.20;99.90
49124;DHT22;48506;48.202;16.274;2023-08-24T01:41:12;23.20;99.90
49124;DHT22;48506;48.202;16.274;2023-08-24T01:43:44;23.20;99.90
49124;DHT22;48506;48.202;16.274;2023-08-24T01:46:14;23.20;99.90
49124;DHT22;48506;48.202;16.274;2023-08-24T01:48:41;23.20;99.90
49124;DHT22;48506;48.202;16.274;2023-08-24T01:51:08;23.20;99.90
49124;DHT22;48506;48.202;16.274;2023-08-24T01:53:36;23.10;99.90
49124;DHT22;48506;48.202;16.274;2023-08-24T01:56:11;23.10;99.90
49124;DHT22;48506;48.202;16.274;2023-08-24T01:58:37;23.10;99.90
49124;DHT22;48506;48.202;16.274;2023-08-24T02:01:09;23.10;99.90
49124;DHT22;48506;48.202;16.274;2023-08-24T02:03:36;23.00;99.90
49124;DHT22;48506;48.202;16.274;2023-08-24T02:06:05;23.00;99.90
49124;DHT22;48506;48.202;16.274;2023-08-24T02:08:33;23.00;99.90
49124;DHT22;48506;48.202;16.274;2023-08-24T02:10:58;23.00;99.90
49124;DHT22;48506;48.202;16.274;2023-08-24T02:13:24;23.00;99.90
49124;DHT22;48506;48.202;16.274;2023-08-24T02:15:50;23.00;99.90
49124;DHT22;48506;48.202;16.274;2023-08-24T02:18:16;23.00;99.90
49124;DHT22;48506;48.202;16.274;2023-08-24T02:20:42;22.90;99.90
49124;DHT22;48506;48.202;16.274;2023-08-24T02:23:08;22.90;99.90
49124;DHT22;48506;48.202;16.274;2023-08-24T02:25:34;22.80;99.90
49124;DHT22;48506;48.202;16.274;2023-08-24T02:28:00;22.80;99.90
49124;DHT22;48506;48.202;16.274;2023-08-24T02:30:26;22.80;99.90
49124;DHT22;48506;48.202;16.274;2023-08-24T02:32:52;22.70;99.90
49124;DHT22;48506;48.202;16.274;2023-08-24T02:35:17;22.70;99.90
49124;DHT22;48506;48.202;16.274;2023-08-24T02:37:44;22.60;99.90
49124;DHT22;48506;48.202;16.274;2023-08-24T02:40:11;22.60;99.90
49124;DHT22;48506;48.202;16.274;2023-08-24T02:42:37;22.70;99.90
49124;DHT22;48506;48.202;16.274;2023-08-24T02:45:03;22.70;99.90
49124;DHT22;48506;48.202;16.274;2023-08-24T02:47:29;22.70;99.90
49124;DHT22;48506;48.202;16.274;2023-08-24T02:49:55;22.70;99.90
49124;DHT22;48506;48.202;16.274;2023-08-24T02:52:21;22.70;99.90
49124;DHT22;48506;48.202;16.274;2023-08-24T02:54:47;22.70;99.90
49124;DHT22;48506;48.202;16.274;2023-08-24T02:57:13;22.60;99.90
49124;DHT22;48506;48.202;16.274;2023-08-24T02:59:39;22.60;99.90
49124;DHT22;48506;48.202;16.274;2023-08-24T03:02:05;22.60;99.90
49124;DHT22;48506;48.202;16.274;2023-08-24T03:04:31;22.50;99.90
49124;DHT22;48506;48.202;16.274;2023-08-24T03:06:57;22.50;99.90
49124;DHT22;48506;48.202;16.274;2023-08-24T03:09:23;22.50;99.90
49124;DHT22;48506;48.202;16.274;2023-08-24T03:11:49;22.40;99.90
49124;DHT22;48506;48.202;16.274;2023-08-24T03:14:18;22.40;99.90
49124;DHT22;48506;48.202;16.274;2023-08-24T03:16:44;22.40;99.90
49124;DHT22;48506;48.202;16.274;2023-08-24T03:19:10;22.40;99.90
49124;DHT22;48506;48.202;16.274;2023-08-24T03:21:37;22.30;99.90
49124;DHT22;48506;48.202;16.274;2023-08-24T03:24:03;22.40;99.90
49124;DHT22;48506;48.202;16.274;2023-08-24T03:26:30;22.30;99.90
49124;DHT22;48506;48.202;16.274;2023-08-24T03:28:57;22.40;99.90
49124;DHT22;48506;48.202;16.274;2023-08-24T03:31:23;22.40;99.90
49124;DHT22;48506;48.202;16.274;2023-08-24T03:33:49;22.40;99.90
49124;DHT22;48506;48.202;16.274;2023-08-24T03:36:15;22.40;99.90
49124;DHT22;48506;48.202;16.274;2023-08-24T03:38:41;22.40;99.90
49124;DHT22;48506;48.202;16.274;2023-08-24T03:41:07;22.30;99.90
49124;DHT22;48506;48.202;16.274;2023-08-24T03:43:34;22.40;99.90
49124;DHT22;48506;48.202;16.274;2023-08-24T03:46:01;22.30;99.90
49124;DHT22;48506;48.202;16.274;2023-08-24T03:48:27;22.30;99.90
49124;DHT22;48506;48.202;16.274;2023-08-24T03:50:57;22.30;99.90
49124;DHT22;48506;48.202;16.274;2023-08-24T03:53:24;22.30;99.90
49124;DHT22;48506;48.202;16.274;2023-08-24T03:55:51;22.30;99.90
49124;DHT22;48506;48.202;16.274;2023-08-24T03:58:17;22.30;99.90
49124;DHT22;48506;48.202;16.274;2023-08-24T04:00:47;22.30;99.90
49124;DHT22;48506;48.202;16.274;2023-08-24T04:03:13;22.30;99.90
49124;DHT22;48506;48.202;16.274;2023-08-24T04:05:39;22.30;99.90
49124;DHT22;48506;48.202;16.274;2023-08-24T04:08:05;22.20;99.90
49124;DHT22;48506;48.202;16.274;2023-08-24T04:10:31;22.20;99.90
49124;DHT22;48506;48.202;16.274;2023-08-24T04:12:57;22.20;99.90
49124;DHT22;48506;48.202;16.274;2023-08-24T04:15:23;22.30;99.90
49124;DHT22;48506;48.202;16.274;2023-08-24T04:17:50;22.30;99.90
49124;DHT22;48506;48.202;16.274;2023-08-24T04:20:16;22.30;99.90
49124;DHT22;48506;48.202;16.274;2023-08-24T04:22:42;22.30;99.90
49124;DHT22;48506;48.202;16.274;2023-08-24T04:25:08;22.20;99.90
49124;DHT22;48506;48.202;16.274;2023-08-24T04:27:36;22.20;99.90
49124;DHT22;48506;48.202;16.274;2023-08-24T04:30:02;22.20;99.90
49124;DHT22;48506;48.202;16.274;2023-08-24T04:32:28;22.20;99.90
49124;DHT22;48506;48.202;16.274;2023-08-24T04:34:54;22.10;99.90
49124;DHT22;48506;48.202;16.274;2023-08-24T04:37:20;22.10;99.90
49124;DHT22;48506;48.202;16.274;2023-08-24T04:39:46;22.10;99.90
49124;DHT22;48506;48.202;16.274;2023-08-24T04:42:12;22.20;99.90
49124;DHT22;48506;48.202;16.274;2023-08-24T04:44:38;22.20;99.90
49124;DHT22;48506;48.202;16.274;2023-08-24T04:47:04;22.30;99.90
49124;DHT22;48506;48.202;16.274;2023-08-24T04:49:30;22.30;99.90
49124;DHT22;48506;48.202;16.274;2023-08-24T04:51:56;22.30;99.90
49124;DHT22;48506;48.202;16.274;2023-08-24T04:54:22;22.20;99.90
49124;DHT22;48506;48.202;16.274;2023-08-24T04:56:48;22.20;99.90
49124;DHT22;48506;48.202;16.274;2023-08-24T04:59:14;22.20;99.90
49124;DHT22;48506;48.202;16.274;2023-08-24T05:01:39;22.10;99.90
49124;DHT22;48506;48.202;16.274;2023-08-24T05:04:05;22.10;99.90
49124;DHT22;48506;48.202;16.274;2023-08-24T05:06:31;22.10;99.90
49124;DHT22;48506;48.202;16.274;2023-08-24T05:08:57;22.20;99.90
49124;DHT22;48506;48.202;16.274;2023-08-24T05:11:26;22.30;99.90
49124;DHT22;48506;48.202;16.274;2023-08-24T05:13:55;22.30;99.90
49124;DHT22;48506;48.202;16.274;2023-08-24T05:16:21;22.40;99.90
49124;DHT22;48506;48.202;16.274;2023-08-24T05:18:47;22.50;99.90
49124;DHT22;48506;48.202;16.274;2023-08-24T05:21:13;22.50;99.90
49124;DHT22;48506;48.202;16.274;2023-08-24T05:23:39;22.40;99.90
49124;DHT22;48506;48.202;16.274;2023-08-24T05:26:06;22.40;99.90
49124;DHT22;48506;48.202;16.274;2023-08-24T05:28:32;22.50;99.90
49124;DHT22;48506;48.202;16.274;2023-08-24T05:30:59;22.60;99.90
49124;DHT22;48506;48.202;16.274;2023-08-24T05:33:26;22.70;99.90
49124;DHT22;48506;48.202;16.274;2023-08-24T05:35:52;22.80;99.90
49124;DHT22;48506;48.202;16.274;2023-08-24T05:38:19;22.80;99.90
49124;DHT22;48506;48.202;16.274;2023-08-24T05:40:49;22.80;99.90
49124;DHT22;48506;48.202;16.274;2023-08-24T05:43:15;23.00;99.90
49124;DHT22;48506;48.202;16.274;2023-08-24T05:45:41;23.10;99.90
49124;DHT22;48506;48.202;16.274;2023-08-24T05:48:10;23.20;99.90
49124;DHT22;48506;48.202;16.274;2023-08-24T05:50:41;23.30;99.90
49124;DHT22;48506;48.202;16.274;2023-08-24T05:53:08;23.40;99.90
49124;DHT22;48506;48.202;16.274;2023-08-24T05:55:35;23.50;99.90
49124;DHT22;48506;48.202;16.274;2023-08-24T05:58:01;23.70;99.90
49124;DHT22;48506;48.202;16.274;2023-08-24T06:00:27;23.70;99.90
49124;DHT22;48506;48.202;16.274;2023-08-24T06:02:53;23.70;99.90
49124;DHT22;48506;48.202;16.274;2023-08-24T06:05:18;23.90;99.90
49124;DHT22;48506;48.202;16.274;2023-08-24T06:07:45;24.00;99.80
49124;DHT22;48506;48.202;16.274;2023-08-24T06:10:12;24.10;99.80
49124;DHT22;48506;48.202;16.274;2023-08-24T06:12:39;24.20;99.50
49124;DHT22;48506;48.202;16.274;2023-08-24T06:15:06;24.30;99.20
49124;DHT22;48506;48.202;16.274;2023-08-24T06:17:35;24.40;99.40
49124;DHT22;48506;48.202;16.274;2023-08-24T06:20:03;24.40;99.10
49124;DHT22;48506;48.202;16.274;2023-08-24T06:22:30;24.40;98.90
49124;DHT22;48506;48.202;16.274;2023-08-24T06:24:56;24.40;98.90
49124;DHT22;48506;48.202;16.274;2023-08-24T06:27:25;24.40;99.10
49124;DHT22;48506;48.202;16.274;2023-08-24T06:29:52;24.40;99.10
49124;DHT22;48506;48.202;16.274;2023-08-24T06:32:18;24.60;99.20
49124;DHT22;48506;48.202;16.274;2023-08-24T06:34:44;24.90;98.90
49124;DHT22;48506;48.202;16.274;2023-08-24T06:37:10;25.10;98.60
49124;DHT22;48506;48.202;16.274;2023-08-24T06:39:36;25.10;98.00
49124;DHT22;48506;48.202;16.274;2023-08-24T06:42:02;25.10;97.70
49124;DHT22;48506;48.202;16.274;2023-08-24T06:44:28;25.10;97.90
49124;DHT22;48506;48.202;16.274;2023-08-24T06:46:55;25.20;97.70
49124;DHT22;48506;48.202;16.274;2023-08-24T06:49:21;25.40;97.40
49124;DHT22;48506;48.202;16.274;2023-08-24T06:51:47;25.40;96.80
49124;DHT22;48506;48.202;16.274;2023-08-24T06:54:13;25.50;96.70
49124;DHT22;48506;48.202;16.274;2023-08-24T06:56:40;25.70;96.90
49124;DHT22;48506;48.202;16.274;2023-08-24T06:59:07;25.90;96.60
49124;DHT22;48506;48.202;16.274;2023-08-24T07:01:33;26.00;96.20
49124;DHT22;48506;48.202;16.274;2023-08-24T07:03:59;26.00;96.00
49124;DHT22;48506;48.202;16.274;2023-08-24T07:06:25;26.20;96.20
49124;DHT22;48506;48.202;16.274;2023-08-24T07:08:51;26.30;96.20
49124;DHT22;48506;48.202;16.274;2023-08-24T07:11:17;26.50;95.70
49124;DHT22;48506;48.202;16.274;2023-08-24T07:13:44;26.70;95.40
49124;DHT22;48506;48.202;16.274;2023-08-24T07:16:11;26.90;95.40
49124;DHT22;48506;48.202;16.274;2023-08-24T07:18:37;27.10;95.10
49124;DHT22;48506;48.202;16.274;2023-08-24T07:21:03;27.30;94.90
49124;DHT22;48506;48.202;16.274;2023-08-24T07:23:29;27.50;94.80
49124;DHT22;48506;48.202;16.274;2023-08-24T07:25:55;27.50;93.90
49124;DHT22;48506;48.202;16.274;2023-08-24T07:28:21;27.60;94.20
49124;DHT22;48506;48.202;16.274;2023-08-24T07:30:47;27.70;94.10
49124;DHT22;48506;48.202;16.274;2023-08-24T07:33:13;27.90;93.70
49124;DHT22;48506;48.202;16.274;2023-08-24T07:35:40;28.00;93.60
49124;DHT22;48506;48.202;16.274;2023-08-24T07:38:06;28.10;93.10
49124;DHT22;48506;48.202;16.274;2023-08-24T07:40:32;28.20;93.20
49124;DHT22;48506;48.202;16.274;2023-08-24T07:42:59;28.30;93.10
49124;DHT22;48506;48.202;16.274;2023-08-24T07:45:26;28.40;92.60
49124;DHT22;48506;48.202;16.274;2023-08-24T07:47:53;28.40;92.50
49124;DHT22;48506;48.202;16.274;2023-08-24T07:50:22;28.40;92.50
49124;DHT22;48506;48.202;16.274;2023-08-24T07:52:48;28.70;92.70
49124;DHT22;48506;48.202;16.274;2023-08-24T07:55:14;28.80;92.00
49124;DHT22;48506;48.202;16.274;2023-08-24T07:57:42;28.90;91.90
49124;DHT22;48506;48.202;16.274;2023-08-24T08:00:08;29.00;91.70
49124;DHT22;48506;48.202;16.274;2023-08-24T08:02:39;29.10;91.50
49124;DHT22;48506;48.202;16.274;2023-08-24T08:05:06;29.30;90.90
49124;DHT22;48506;48.202;16.274;2023-08-24T08:07:38;29.40;91.30
49124;DHT22;48506;48.202;16.274;2023-08-24T08:10:04;29.50;91.00
49124;DHT22;48506;48.202;16.274;2023-08-24T08:12:30;29.70;90.70
49124;DHT22;48506;48.202;16.274;2023-08-24T08:14:57;29.90;89.30
49124;DHT22;48506;48.202;16.274;2023-08-24T08:17:23;29.90;88.60
49124;DHT22;48506;48.202;16.274;2023-08-24T08:19:53;30.00;87.50
49124;DHT22;48506;48.202;16.274;2023-08-24T08:22:19;30.10;87.30
49124;DHT22;48506;48.202;16.274;2023-08-24T08:24:45;30.20;87.30
49124;DHT22;48506;48.202;16.274;2023-08-24T08:27:11;30.30;86.20
49124;DHT22;48506;48.202;16.274;2023-08-24T08:29:37;30.40;86.10
49124;DHT22;48506;48.202;16.274;2023-08-24T08:32:03;30.50;85.60
49124;DHT22;48506;48.202;16.274;2023-08-24T08:34:30;30.50;85.60
49124;DHT22;48506;48.202;16.274;2023-08-24T08:36:56;30.60;84.60
49124;DHT22;48506;48.202;16.274;2023-08-24T08:39:22;30.70;85.10
49124;DHT22;48506;48.202;16.274;2023-08-24T08:41:49;30.80;84.50
49124;DHT22;48506;48.202;16.274;2023-08-24T08:44:15;30.90;84.10
49124;DHT22;48506;48.202;16.274;2023-08-24T08:46:42;31.00;83.80
49124;DHT22;48506;48.202;16.274;2023-08-24T08:49:09;31.00;84.10
49124;DHT22;48506;48.202;16.274;2023-08-24T08:51:36;31.10;83.40
49124;DHT22;48506;48.202;16.274;2023-08-24T08:54:04;31.30;82.20
49124;DHT22;48506;48.202;16.274;2023-08-24T08:56:33;31.30;82.30
49124;DHT22;48506;48.202;16.274;2023-08-24T08:59:00;31.20;80.50
49124;DHT22;48506;48.202;16.274;2023-08-24T09:01:28;31.10;82.60
49124;DHT22;48506;48.202;16.274;2023-08-24T09:03:54;31.20;81.40
49124;DHT22;48506;48.202;16.274;2023-08-24T09:06:21;31.30;81.60
49124;DHT22;48506;48.202;16.274;2023-08-24T09:08:49;31.40;81.30
49124;DHT22;48506;48.202;16.274;2023-08-24T09:11:16;31.60;80.30
49124;DHT22;48506;48.202;16.274;2023-08-24T09:13:45;31.60;80.90
49124;DHT22;48506;48.202;16.274;2023-08-24T09:16:11;31.70;79.90
49124;DHT22;48506;48.202;16.274;2023-08-24T09:18:43;31.80;79.80
49124;DHT22;48506;48.202;16.274;2023-08-24T09:21:11;31.90;79.50
49124;DHT22;48506;48.202;16.274;2023-08-24T09:23:43;32.00;78.50
49124;DHT22;48506;48.202;16.274;2023-08-24T09:26:10;32.10;78.40
49124;DHT22;48506;48.202;16.274;2023-08-24T09:28:36;32.20;78.70
49124;DHT22;48506;48.202;16.274;2023-08-24T09:31:06;32.20;78.00
49124;DHT22;48506;48.202;16.274;2023-08-24T09:33:32;32.20;77.90
49124;DHT22;48506;48.202;16.274;2023-08-24T09:35:57;32.40;77.50
49124;DHT22;48506;48.202;16.274;2023-08-24T09:38:30;32.40;77.60
49124;DHT22;48506;48.202;16.274;2023-08-24T09:40:56;32.50;77.30
49124;DHT22;48506;48.202;16.274;2023-08-24T09:43:23;32.60;77.20
49124;DHT22;48506;48.202;16.274;2023-08-24T09:45:53;32.70;76.70
49124;DHT22;48506;48.202;16.274;2023-08-24T09:48:20;32.80;75.80
49124;DHT22;48506;48.202;16.274;2023-08-24T09:50:48;32.80;74.70
49124;DHT22;48506;48.202;16.274;2023-08-24T09:53:22;32.90;75.20
49124;DHT22;48506;48.202;16.274;2023-08-24T09:58:24;32.80;75.30
49124;DHT22;48506;48.202;16.274;2023-08-24T10:00:51;33.00;75.70
49124;DHT22;48506;48.202;16.274;2023-08-24T10:03:25;33.00;74.90
49124;DHT22;48506;48.202;16.274;2023-08-24T10:05:55;32.90;75.30
49124;DHT22;48506;48.202;16.274;2023-08-24T10:08:43;33.00;74.40
49124;DHT22;48506;48.202;16.274;2023-08-24T10:11:10;33.00;75.90
49124;DHT22;48506;48.202;16.274;2023-08-24T10:13:48;33.20;73.60
49124;DHT22;48506;48.202;16.274;2023-08-24T10:16:16;33.30;73.20
49124;DHT22;48506;48.202;16.274;2023-08-24T10:18:44;33.30;73.20
49124;DHT22;48506;48.202;16.274;2023-08-24T10:21:11;33.40;74.40
49124;DHT22;48506;48.202;16.274;2023-08-24T10:23:37;33.50;72.80
49124;DHT22;48506;48.202;16.274;2023-08-24T10:26:07;33.70;73.90
49124;DHT22;48506;48.202;16.274;2023-08-24T10:28:33;34.00;73.20
49124;DHT22;48506;48.202;16.274;2023-08-24T10:31:01;34.10;72.40
49124;DHT22;48506;48.202;16.274;2023-08-24T10:33:28;34.10;72.60
49124;DHT22;48506;48.202;16.274;2023-08-24T10:35:55;34.30;71.40
49124;DHT22;48506;48.202;16.274;2023-08-24T10:38:29;34.30;71.30
49124;DHT22;48506;48.202;16.274;2023-08-24T10:41:02;34.30;70.20
49124;DHT22;48506;48.202;16.274;2023-08-24T10:43:41;34.20;69.90
49124;DHT22;48506;48.202;16.274;2023-08-24T10:46:14;34.10;70.70
49124;DHT22;48506;48.202;16.274;2023-08-24T10:51:19;34.20;71.00
49124;DHT22;48506;48.202;16.274;2023-08-24T10:53:53;34.40;69.70
49124;DHT22;48506;48.202;16.274;2023-08-24T10:56:19;34.30;69.70
49124;DHT22;48506;48.202;16.274;2023-08-24T10:58:47;34.30;68.90
49124;DHT22;48506;48.202;16.274;2023-08-24T11:01:17;34.20;70.60
49124;DHT22;48506;48.202;16.274;2023-08-24T11:03:55;34.40;69.90
49124;DHT22;48506;48.202;16.274;2023-08-24T11:06:22;34.30;69.20
49124;DHT22;48506;48.202;16.274;2023-08-24T11:08:49;34.30;70.00
49124;DHT22;48506;48.202;16.274;2023-08-24T11:11:22;34.40;69.80
49124;DHT22;48506;48.202;16.274;2023-08-24T11:14:18;34.40;69.50
49124;DHT22;48506;48.202;16.274;2023-08-24T11:16:53;34.60;70.40
49124;DHT22;48506;48.202;16.274;2023-08-24T11:19:19;34.90;69.10
49124;DHT22;48506;48.202;16.274;2023-08-24T11:21:46;35.00;68.50
49124;DHT22;48506;48.202;16.274;2023-08-24T11:24:13;35.10;68.60
49124;DHT22;48506;48.202;16.274;2023-08-24T11:26:44;35.30;68.50
49124;DHT22;48506;48.202;16.274;2023-08-24T11:29:11;35.20;68.90
49124;DHT22;48506;48.202;16.274;2023-08-24T11:31:38;35.20;68.00
49124;DHT22;48506;48.202;16.274;2023-08-24T11:34:05;35.20;66.50
49124;DHT22;48506;48.202;16.274;2023-08-24T11:36:45;35.10;66.70
49124;DHT22;48506;48.202;16.274;2023-08-24T11:39:20;35.10;65.70
49124;DHT22;48506;48.202;16.274;2023-08-24T11:42:01;35.20;67.30
49124;DHT22;48506;48.202;16.274;2023-08-24T11:44:46;35.30;65.80
49124;DHT22;48506;48.202;16.274;2023-08-24T11:47:13;35.40;65.60
49124;DHT22;48506;48.202;16.274;2023-08-24T11:49:39;35.30;64.90
49124;DHT22;48506;48.202;16.274;2023-08-24T11:52:05;35.30;64.60
49124;DHT22;48506;48.202;16.274;2023-08-24T11:54:34;35.20;64.30
49124;DHT22;48506;48.202;16.274;2023-08-24T11:57:07;35.00;65.00
49124;DHT22;48506;48.202;16.274;2023-08-24T11:59:38;35.00;65.90
49124;DHT22;48506;48.202;16.274;2023-08-24T12:02:06;35.00;65.80
49124;DHT22;48506;48.202;16.274;2023-08-24T12:04:40;35.00;65.60
49124;DHT22;48506;48.202;16.274;2023-08-24T12:07:12;34.90;64.80
49124;DHT22;48506;48.202;16.274;2023-08-24T12:09:39;34.90;63.90
49124;DHT22;48506;48.202;16.274;2023-08-24T12:12:05;34.90;64.20
49124;DHT22;48506;48.202;16.274;2023-08-24T12:14:41;35.00;65.10
49124;DHT22;48506;48.202;16.274;2023-08-24T12:17:08;35.10;65.00
49124;DHT22;48506;48.202;16.274;2023-08-24T12:19:34;35.20;65.30
49124;DHT22;48506;48.202;16.274;2023-08-24T12:22:00;35.20;65.00
49124;DHT22;48506;48.202;16.274;2023-08-24T12:24:27;35.10;64.50
49124;DHT22;48506;48.202;16.274;2023-08-24T12:26:56;34.90;64.80
49124;DHT22;48506;48.202;16.274;2023-08-24T12:29:25;34.70;65.30
49124;DHT22;48506;48.202;16.274;2023-08-24T12:31:51;34.70;64.90
49124;DHT22;48506;48.202;16.274;2023-08-24T12:34:21;34.80;64.30
49124;DHT22;48506;48.202;16.274;2023-08-24T12:36:47;34.80;65.30
49124;DHT22;48506;48.202;16.274;2023-08-24T12:39:13;35.00;65.00
49124;DHT22;48506;48.202;16.274;2023-08-24T12:41:39;35.10;64.60
49124;DHT22;48506;48.202;16.274;2023-08-24T12:44:05;35.20;63.80
49124;DHT22;48506;48.202;16.274;2023-08-24T12:46:34;35.10;64.40
49124;DHT22;48506;48.202;16.274;2023-08-24T12:49:03;35.00;64.00
49124;DHT22;48506;48.202;16.274;2023-08-24T12:51:29;35.00;63.80
49124;DHT22;48506;48.202;16.274;2023-08-24T12:53:55;35.00;63.00
49124;DHT22;48506;48.202;16.274;2023-08-24T12:56:22;34.90;63.40
49124;DHT22;48506;48.202;16.274;2023-08-24T12:58:48;34.90;64.10
49124;DHT22;48506;48.202;16.274;2023-08-24T13:01:13;34.90;64.20
49124;DHT22;48506;48.202;16.274;2023-08-24T13:03:39;34.90;64.20
49124;DHT22;48506;48.202;16.274;2023-08-24T13:06:06;34.80;63.10
49124;DHT22;48506;48.202;16.274;2023-08-24T13:08:32;34.70;65.10
49124;DHT22;48506;48.202;16.274;2023-08-24T13:10:58;34.60;64.60
49124;DHT22;48506;48.202;16.274;2023-08-24T13:13:24;34.60;64.40
49124;DHT22;48506;48.202;16.274;2023-08-24T13:15:51;34.60;65.20
49124;DHT22;48506;48.202;16.274;2023-08-24T13:18:17;34.60;64.70
49124;DHT22;48506;48.202;16.274;2023-08-24T13:20:43;34.60;64.40
49124;DHT22;48506;48.202;16.274;2023-08-24T13:23:09;34.50;64.80
49124;DHT22;48506;48.202;16.274;2023-08-24T13:25:35;34.50;64.30
49124;DHT22;48506;48.202;16.274;2023-08-24T13:28:01;34.40;64.20
49124;DHT22;48506;48.202;16.274;2023-08-24T13:30:27;34.40;64.10
49124;DHT22;48506;48.202;16.274;2023-08-24T13:32:54;34.40;64.80
49124;DHT22;48506;48.202;16.274;2023-08-24T13:35:20;34.40;64.40
49124;DHT22;48506;48.202;16.274;2023-08-24T13:37:46;34.50;64.60
49124;DHT22;48506;48.202;16.274;2023-08-24T13:40:12;34.50;64.40
49124;DHT22;48506;48.202;16.274;2023-08-24T13:42:38;34.60;64.30
49124;DHT22;48506;48.202;16.274;2023-08-24T13:45:04;34.50;64.30
49124;DHT22;48506;48.202;16.274;2023-08-24T13:47:31;34.40;64.50
49124;DHT22;48506;48.202;16.274;2023-08-24T13:49:57;34.30;64.70
49124;DHT22;48506;48.202;16.274;2023-08-24T13:52:23;34.50;65.40
49124;DHT22;48506;48.202;16.274;2023-08-24T13:54:48;34.50;64.60
49124;DHT22;48506;48.202;16.274;2023-08-24T13:57:15;34.50;64.70
49124;DHT22;48506;48.202;16.274;2023-08-24T13:59:41;34.50;64.30
49124;DHT22;48506;48.202;16.274;2023-08-24T14:02:07;34.50;65.20
49124;DHT22;48506;48.202;16.274;2023-08-24T14:04:33;34.50;65.00
49124;DHT22;48506;48.202;16.274;2023-08-24T14:06:59;34.50;64.00
49124;DHT22;48506;48.202;16.274;2023-08-24T14:09:25;34.50;65.00
49124;DHT22;48506;48.202;16.274;2023-08-24T14:11:51;34.50;64.30
49124;DHT22;48506;48.202;16.274;2023-08-24T14:14:17;34.50;63.70
49124;DHT22;48506;48.202;16.274;2023-08-24T14:16:43;34.50;65.50
49124;DHT22;48506;48.202;16.274;2023-08-24T14:19:09;34.50;65.70
49124;DHT22;48506;48.202;16.274;2023-08-24T14:21:35;34.50;65.40
49124;DHT22;48506;48.202;16.274;2023-08-24T14:24:01;34.50;65.20
49124;DHT22;48506;48.202;16.274;2023-08-24T14:26:27;34.50;64.00
49124;DHT22;48506;48.202;16.274;2023-08-24T14:28:57;34.60;64.50
49124;DHT22;48506;48.202;16.274;2023-08-24T14:31:27;34.60;64.80
49124;DHT22;48506;48.202;16.274;2023-08-24T14:33:55;34.60;64.80
49124;DHT22;48506;48.202;16.274;2023-08-24T14:36:22;34.60;63.70
49124;DHT22;48506;48.202;16.274;2023-08-24T14:38:49;34.70;64.70
49124;DHT22;48506;48.202;16.274;2023-08-24T14:41:16;34.70;65.80
49124;DHT22;48506;48.202;16.274;2023-08-24T14:43:42;34.70;65.10
49124;DHT22;48506;48.202;16.274;2023-08-24T14:46:08;34.60;63.70
49124;DHT22;48506;48.202;16.274;2023-08-24T14:48:34;34.70;65.40
49124;DHT22;48506;48.202;16.274;2023-08-24T14:51:01;34.80;65.20
49124;DHT22;48506;48.202;16.274;2023-08-24T14:53:28;34.60;63.90
49124;DHT22;48506;48.202;16.274;2023-08-24T14:55:55;34.70;64.60
49124;DHT22;48506;48.202;16.274;2023-08-24T14:58:25;34.70;65.00
49124;DHT22;48506;48.202;16.274;2023-08-24T15:00:53;35.00;63.90
49124;DHT22;48506;48.202;16.274;2023-08-24T15:03:19;35.10;63.80
49124;DHT22;48506;48.202;16.274;2023-08-24T15:05:55;35.10;63.50
49124;DHT22;48506;48.202;16.274;2023-08-24T15:08:21;35.00;63.90
49124;DHT22;48506;48.202;16.274;2023-08-24T15:10:48;34.90;63.10
49124;DHT22;48506;48.202;16.274;2023-08-24T15:13:14;34.80;64.30
49124;DHT22;48506;48.202;16.274;2023-08-24T15:15:40;34.70;64.20
49124;DHT22;48506;48.202;16.274;2023-08-24T15:18:06;34.70;65.50
49124;DHT22;48506;48.202;16.274;2023-08-24T15:20:32;34.60;65.00
49124;DHT22;48506;48.202;16.274;2023-08-24T15:22:59;34.60;65.30
49124;DHT22;48506;48.202;16.274;2023-08-24T15:25:25;34.60;65.30